Time;durP1;ratioP1;P1;durP2;ratioP2;P2;SDS_P1;SDS_P2;PMS_P1;PMS_P2;Temp;Humidity;BMP_temperature;BMP_pressure;BME280_temperature;BME280_humidity;BME280_pressure;Samples;Min_cycle;Max_cycle;Signal;HPM_P1;HPM_P2
2022/05/30 00:00:35;;;;;;;1.17;0.70;;;20.80;59.50;;;;;;4974013;28;20020;-68
2022/05/30 00:03:01;;;;;;;1.48;0.80;;;20.80;59.50;;;;;;4973949;28;20030;-68
2022/05/30 00:05:29;;;;;;;0.88;0.68;;;20.80;59.60;;;;;;4973923;28;20114;-68
2022/05/30 00:07:55;;;;;;;1.63;0.90;;;20.80;59.60;;;;;;4973782;28;20031;-68
2022/05/30 00:10:20;;;;;;;1.48;0.80;;;20.70;59.50;;;;;;4973843;28;20026;-68
2022/05/30 00:12:46;;;;;;;3.05;1.10;;;20.80;59.60;;;;;;4973498;28;20062;-68
2022/05/30 00:15:13;;;;;;;2.35;0.80;;;20.80;59.70;;;;;;4973792;28;20033;-69
2022/05/30 00:17:39;;;;;;;0.90;0.68;;;20.80;59.60;;;;;;4972379;28;20034;-69
2022/05/30 00:20:05;;;;;;;1.30;0.80;;;20.70;59.70;;;;;;4973453;28;20381;-69
2022/05/30 00:22:31;;;;;;;0.73;0.70;;;20.80;59.70;;;;;;4973887;28;20055;-69
2022/05/30 00:24:57;;;;;;;2.70;0.85;;;20.70;59.70;;;;;;4973708;28;20047;-69
2022/05/30 00:27:22;;;;;;;1.70;0.80;;;20.70;59.80;;;;;;4973668;28;20061;-69
2022/05/30 00:29:48;;;;;;;1.27;0.80;;;20.70;59.80;;;;;;4973525;28;20031;-68
2022/05/30 00:32:14;;;;;;;3.28;1.15;;;20.70;59.80;;;;;;4973562;28;20026;-68
2022/05/30 00:34:39;;;;;;;2.30;0.90;;;20.70;59.80;;;;;;4972474;28;20023;-69
2022/05/30 00:37:05;;;;;;;0.88;0.77;;;20.70;59.80;;;;;;4973401;28;20031;-69
2022/05/30 00:39:32;;;;;;;1.65;0.90;;;20.70;59.80;;;;;;4973403;28;20019;-69
2022/05/30 00:42:18;;;;;;;1.40;0.80;;;20.70;59.90;;;;;;4972186;28;20489;-69
2022/05/30 00:44:45;;;;;;;1.33;0.82;;;20.70;59.90;;;;;;4972428;28;20023;-68
2022/05/30 00:47:11;;;;;;;2.20;0.80;;;20.70;60.00;;;;;;4973412;28;20421;-68
2022/05/30 00:49:38;;;;;;;2.65;0.85;;;20.70;60.00;;;;;;4973265;28;20051;-68
2022/05/30 00:52:05;;;;;;;1.13;0.70;;;20.70;60.00;;;;;;4956351;28;20026;-68
2022/05/30 00:54:37;;;;;;;2.67;1.00;;;20.70;60.00;;;;;;4956681;28;20114;-68
2022/05/30 00:57:20;;;;;;;1.05;0.77;;;20.70;60.10;;;;;;4956321;28;20050;-68
2022/05/30 00:59:50;;;;;;;1.35;0.90;;;20.70;60.10;;;;;;4972190;28;20023;-68
2022/05/30 01:02:16;;;;;;;1.25;0.80;;;20.60;60.10;;;;;;4972245;28;20479;-68
2022/05/30 01:07:25;;;;;;;1.23;0.80;;;20.60;60.10;;;;;;4973566;28;20041;-68
2022/05/30 01:09:53;;;;;;;2.90;0.60;;;20.60;60.20;;;;;;4973026;28;20110;-68
2022/05/30 01:12:19;;;;;;;1.95;0.85;;;20.60;60.20;;;;;;4956418;28;20512;-69
2022/05/30 01:14:44;;;;;;;1.63;1.02;;;20.60;60.20;;;;;;4955822;28;20031;-68
2022/05/30 01:17:13;;;;;;;0.80;0.80;;;20.60;60.20;;;;;;4973037;28;20039;-68
2022/05/30 01:20:05;;;;;;;2.92;1.00;;;20.60;60.20;;;;;;4971771;28;20510;-68
2022/05/30 01:22:53;;;;;;;3.72;0.82;;;20.60;60.20;;;;;;4972007;28;20031;-69
2022/05/30 01:25:36;;;;;;;2.13;0.93;;;20.60;60.30;;;;;;4973015;28;20019;-69
2022/05/30 01:28:22;;;;;;;0.80;0.70;;;20.60;60.40;;;;;;4975245;28;20030;-69
2022/05/30 01:30:47;;;;;;;2.33;0.57;;;20.60;60.40;;;;;;4974344;28;20058;-69
2022/05/30 01:33:13;;;;;;;1.05;0.80;;;20.60;60.50;;;;;;4974474;28;20513;-69
2022/05/30 01:35:39;;;;;;;1.45;0.77;;;20.60;60.40;;;;;;4974487;28;20045;-69
2022/05/30 01:38:04;;;;;;;1.15;0.82;;;20.60;60.50;;;;;;4958210;28;20527;-68
2022/05/30 01:40:30;;;;;;;1.02;0.63;;;20.60;60.50;;;;;;4974200;28;20113;-69
2022/05/30 01:42:56;;;;;;;1.38;0.60;;;20.60;60.50;;;;;;4974279;28;20034;-69
2022/05/30 01:45:23;;;;;;;1.40;0.60;;;20.60;60.50;;;;;;4974051;28;20489;-69
2022/05/30 01:47:49;;;;;;;1.77;0.60;;;20.50;60.50;;;;;;4974124;28;20505;-68
2022/05/30 01:50:15;;;;;;;1.52;0.80;;;20.60;60.60;;;;;;4974223;28;20037;-69
2022/05/30 01:52:40;;;;;;;1.05;0.63;;;20.60;60.60;;;;;;4974268;28;20035;-69
2022/05/30 01:55:06;;;;;;;1.00;0.88;;;20.50;60.60;;;;;;4973958;28;20466;-69
2022/05/30 01:57:32;;;;;;;0.90;0.70;;;20.60;60.60;;;;;;4973894;28;20554;-68
2022/05/30 01:59:57;;;;;;;0.65;0.50;;;20.60;60.70;;;;;;4973991;28;20069;-69
2022/05/30 02:02:23;;;;;;;1.95;0.80;;;20.50;60.60;;;;;;4974090;28;20178;-69
2022/05/30 02:04:50;;;;;;;2.08;0.80;;;20.50;60.70;;;;;;4973856;28;20053;-69
2022/05/30 02:07:16;;;;;;;0.60;0.60;;;20.50;60.70;;;;;;4974400;28;20410;-69
2022/05/30 02:09:42;;;;;;;1.05;0.68;;;20.50;60.70;;;;;;4974794;28;20555;-69
2022/05/30 02:12:08;;;;;;;1.25;0.60;;;20.50;60.70;;;;;;4975826;28;20552;-69
2022/05/30 02:14:33;;;;;;;1.73;0.43;;;20.50;60.70;;;;;;4975872;28;20026;-69
2022/05/30 02:17:04;;;;;;;1.27;0.70;;;20.50;60.70;;;;;;4975616;28;20035;-69
2022/05/30 02:19:39;;;;;;;0.68;0.60;;;20.50;60.70;;;;;;4974592;28;20023;-69
2022/05/30 02:22:06;;;;;;;1.02;0.65;;;20.50;60.90;;;;;;4974356;28;20118;-69
2022/05/30 02:24:32;;;;;;;1.50;0.63;;;20.50;60.90;;;;;;4974649;28;20038;-69
2022/05/30 02:26:57;;;;;;;0.98;0.65;;;20.50;60.80;;;;;;4974384;28;20031;-69
2022/05/30 02:29:23;;;;;;;1.75;0.73;;;20.50;60.80;;;;;;4975653;28;20022;-69
2022/05/30 02:31:49;;;;;;;0.65;0.65;;;20.50;60.80;;;;;;4972422;28;20035;-69
2022/05/30 02:36:59;;;;;;;0.68;0.60;;;20.50;60.80;;;;;;4955860;28;20037;-68
2022/05/30 02:39:25;;;;;;;1.45;0.73;;;20.50;60.90;;;;;;4955223;29;20440;-68
2022/05/30 02:41:51;;;;;;;0.95;0.60;;;20.50;60.90;;;;;;4954847;29;20023;-68
2022/05/30 02:44:19;;;;;;;1.55;0.80;;;20.40;61.00;;;;;;4954991;29;20106;-68
2022/05/30 02:46:45;;;;;;;1.25;0.70;;;20.50;61.00;;;;;;4956054;29;20043;-68
2022/05/30 02:49:11;;;;;;;1.23;0.70;;;20.50;61.10;;;;;;4954830;29;20027;-68
2022/05/30 02:51:37;;;;;;;1.02;0.60;;;20.50;61.00;;;;;;4955648;29;20394;-68
2022/05/30 02:54:03;;;;;;;0.60;0.50;;;20.50;61.10;;;;;;4955948;29;20097;-68
2022/05/30 02:56:28;;;;;;;0.93;0.60;;;20.50;61.10;;;;;;4954783;29;20030;-68
2022/05/30 02:58:54;;;;;;;1.95;0.60;;;20.50;61.10;;;;;;4954408;29;20046;-68
2022/05/30 03:01:20;;;;;;;1.30;0.60;;;20.50;61.20;;;;;;4954551;29;20463;-68
2022/05/30 03:03:45;;;;;;;1.17;0.60;;;20.50;61.20;;;;;;4955689;29;20027;-68
2022/05/30 03:06:11;;;;;;;2.03;0.80;;;20.50;61.20;;;;;;4955339;29;20046;-68
2022/05/30 03:08:37;;;;;;;1.38;0.85;;;20.40;61.10;;;;;;4955840;29;20041;-68
2022/05/30 03:11:02;;;;;;;1.58;0.52;;;20.40;61.20;;;;;;4955346;29;20147;-68
2022/05/30 03:13:29;;;;;;;1.88;0.60;;;20.40;61.20;;;;;;4954533;29;20155;-69
2022/05/30 03:15:55;;;;;;;1.90;0.70;;;20.40;61.20;;;;;;4955486;29;20038;-69
2022/05/30 03:18:20;;;;;;;1.35;0.80;;;20.40;61.30;;;;;;4954215;29;20032;-69
2022/05/30 03:20:46;;;;;;;0.88;0.70;;;20.40;61.20;;;;;;4964779;28;20106;-68
2022/05/30 03:23:12;;;;;;;1.80;0.80;;;20.40;61.40;;;;;;4974546;28;20110;-68
2022/05/30 03:25:37;;;;;;;0.57;0.57;;;20.40;61.30;;;;;;4974538;28;20029;-68
2022/05/30 03:28:03;;;;;;;1.75;0.75;;;20.40;61.40;;;;;;4974582;28;20031;-68
2022/05/30 03:30:29;;;;;;;0.77;0.55;;;20.40;61.30;;;;;;4974720;28;20385;-69
2022/05/30 03:32:54;;;;;;;1.00;0.70;;;20.40;61.30;;;;;;4974367;28;20085;-68
2022/05/30 03:35:20;;;;;;;0.90;0.82;;;20.40;61.40;;;;;;4974419;28;20109;-69
2022/05/30 03:37:46;;;;;;;1.08;0.60;;;20.40;61.40;;;;;;4974167;28;20031;-69
2022/05/30 03:40:14;;;;;;;1.00;0.60;;;20.40;61.30;;;;;;4973268;28;20042;-69
2022/05/30 03:42:39;;;;;;;0.52;0.52;;;20.40;62.40;;;;;;4974457;28;20035;-68
2022/05/30 03:45:06;;;;;;;0.98;0.60;;;20.40;61.40;;;;;;4974071;28;20023;-68
2022/05/30 03:47:39;;;;;;;1.13;0.70;;;20.40;61.40;;;;;;4974246;28;20023;-68
2022/05/30 03:50:05;;;;;;;0.43;0.40;;;20.40;61.40;;;;;;4972348;28;20026;-69
2022/05/30 03:52:31;;;;;;;2.58;0.73;;;20.30;61.40;;;;;;4974352;28;20033;-69
2022/05/30 03:54:57;;;;;;;0.40;0.40;;;20.30;62.40;;;;;;4974028;28;20035;-68
2022/05/30 03:57:22;;;;;;;1.25;0.70;;;20.30;61.40;;;;;;4973972;28;20093;-68
2022/05/30 03:59:48;;;;;;;0.55;0.50;;;20.30;61.50;;;;;;4972682;28;20057;-69
2022/05/30 04:02:14;;;;;;;0.60;0.50;;;20.30;61.40;;;;;;4956643;28;20034;-68
2022/05/30 04:04:39;;;;;;;0.88;0.70;;;20.30;61.40;;;;;;4974217;28;20023;-69
2022/05/30 04:07:05;;;;;;;0.63;0.57;;;20.30;61.40;;;;;;4973846;28;20490;-68
2022/05/30 04:09:31;;;;;;;1.85;0.60;;;20.30;61.40;;;;;;4973938;28;20023;-68
2022/05/30 04:11:56;;;;;;;0.85;0.50;;;20.30;61.50;;;;;;4973707;28;20027;-68
2022/05/30 04:14:22;;;;;;;0.85;0.65;;;20.30;61.50;;;;;;4973761;28;20030;-68
2022/05/30 04:16:47;;;;;;;1.38;0.85;;;20.30;61.50;;;;;;4973836;28;20038;-68
2022/05/30 04:19:13;;;;;;;1.65;0.70;;;20.30;61.50;;;;;;4973615;28;20050;-68
2022/05/30 04:21:39;;;;;;;1.08;0.60;;;20.30;61.50;;;;;;4973357;28;20109;-68
2022/05/30 04:24:05;;;;;;;1.20;0.60;;;20.30;61.60;;;;;;4973665;28;20023;-68
2022/05/30 04:26:30;;;;;;;0.75;0.57;;;20.30;61.60;;;;;;4973990;28;20031;-68
2022/05/30 04:28:56;;;;;;;3.05;0.85;;;20.30;61.60;;;;;;4972481;28;20396;-68
2022/05/30 04:31:22;;;;;;;1.45;0.75;;;20.20;61.50;;;;;;4972461;28;20085;-68
2022/05/30 04:33:47;;;;;;;0.90;0.50;;;20.30;61.60;;;;;;4955495;28;20031;-69
2022/05/30 04:36:13;;;;;;;1.55;0.47;;;20.20;61.60;;;;;;4953005;29;20086;-68
2022/05/30 04:38:39;;;;;;;0.70;0.40;;;20.20;61.60;;;;;;4954362;29;20030;-69
2022/05/30 04:41:05;;;;;;;1.08;0.63;;;20.20;61.70;;;;;;4953011;29;20031;-68
2022/05/30 04:43:31;;;;;;;0.75;0.50;;;20.30;61.70;;;;;;4953336;29;20020;-69
2022/05/30 04:46:10;;;;;;;1.75;0.60;;;20.20;61.70;;;;;;4953957;29;20054;-68
2022/05/30 04:48:36;;;;;;;1.60;0.63;;;20.20;61.70;;;;;;4954160;29;20028;-68
2022/05/30 04:51:02;;;;;;;0.80;0.35;;;20.20;61.80;;;;;;4954122;29;20513;-68
2022/05/30 04:53:27;;;;;;;1.98;0.50;;;20.20;61.80;;;;;;4954308;29;20031;-68
2022/05/30 04:55:53;;;;;;;0.75;0.63;;;20.20;61.80;;;;;;4954174;29;20034;-68
2022/05/30 04:58:19;;;;;;;1.33;0.75;;;20.20;61.90;;;;;;4953935;29;20028;-68
2022/05/30 05:00:45;;;;;;;0.98;0.57;;;20.20;61.90;;;;;;4954012;28;20128;-68
2022/05/30 05:03:11;;;;;;;0.60;0.60;;;20.20;62.10;;;;;;4956317;29;20055;-68
2022/05/30 05:05:36;;;;;;;1.40;0.65;;;20.20;62.10;;;;;;4957911;29;20075;-69
2022/05/30 05:08:20;;;;;;;1.40;0.77;;;20.20;62.20;;;;;;4956508;29;20023;-69
2022/05/30 05:10:57;;;;;;;2.50;0.57;;;20.20;62.20;;;;;;4956725;29;20031;-69
2022/05/30 05:13:22;;;;;;;1.05;0.60;;;20.10;62.20;;;;;;4956471;29;20024;-69
2022/05/30 05:15:48;;;;;;;2.28;0.55;;;20.20;62.30;;;;;;4957639;29;20390;-68
2022/05/30 05:18:14;;;;;;;2.65;1.17;;;20.10;62.20;;;;;;4962570;28;20486;-68
2022/05/30 05:20:41;;;;;;;1.35;0.70;;;20.20;62.30;;;;;;4973197;28;20035;-68
2022/05/30 05:23:07;;;;;;;1.05;0.65;;;20.20;62.50;;;;;;4973302;28;20105;-68
2022/05/30 05:25:36;;;;;;;1.58;0.60;;;20.10;62.50;;;;;;4974702;28;20066;-68
2022/05/30 05:28:02;;;;;;;1.67;0.73;;;20.10;62.60;;;;;;4972747;28;20429;-69
2022/05/30 05:30:28;;;;;;;1.40;0.55;;;20.20;62.50;;;;;;4974369;28;20031;-68
2022/05/30 05:32:53;;;;;;;2.22;0.70;;;20.20;62.60;;;;;;4974346;28;20033;-68
2022/05/30 05:35:19;;;;;;;0.45;0.43;;;20.20;62.50;;;;;;4974439;28;20223;-69
2022/05/30 05:37:45;;;;;;;4.28;0.70;;;20.20;62.60;;;;;;4974414;28;20030;-68
2022/05/30 05:40:11;;;;;;;2.42;0.52;;;20.10;62.50;;;;;;4974095;28;20097;-68
2022/05/30 05:42:36;;;;;;;0.80;0.55;;;20.10;62.60;;;;;;4973176;28;20058;-68
2022/05/30 05:45:02;;;;;;;1.48;0.70;;;20.10;62.60;;;;;;4973936;28;20054;-68
2022/05/30 05:47:28;;;;;;;1.30;0.77;;;20.10;62.60;;;;;;4974563;28;20035;-69
2022/05/30 05:49:54;;;;;;;3.92;0.75;;;20.10;62.60;;;;;;4976518;28;20131;-68
2022/05/30 05:52:20;;;;;;;1.65;0.57;;;20.10;62.70;;;;;;4976116;28;20041;-68
2022/05/30 05:54:46;;;;;;;0.95;0.70;;;20.10;62.70;;;;;;4976205;28;20031;-69
2022/05/30 05:57:11;;;;;;;0.90;0.70;;;20.10;62.70;;;;;;4975036;28;20453;-68
2022/05/30 05:59:37;;;;;;;1.30;0.70;;;20.10;62.70;;;;;;4976047;28;20055;-69
2022/05/30 06:02:06;;;;;;;1.13;0.60;;;20.10;62.70;;;;;;4975083;28;20489;-68
2022/05/30 06:04:32;;;;;;;9.98;1.70;;;20.10;62.70;;;;;;4974874;28;20065;-68
2022/05/30 06:07:01;;;;;;;4.93;1.63;;;20.10;59.20;;;;;;4976036;28;20023;-68
2022/05/30 06:09:27;;;;;;;3.85;1.58;;;19.80;56.20;;;;;;4974843;28;20022;-67
2022/05/30 06:11:53;;;;;;;5.97;1.90;;;19.60;54.80;;;;;;4974902;28;20019;-68
2022/05/30 06:14:19;;;;;;;2.78;1.95;;;19.40;54.30;;;;;;4974428;28;20022;-68
2022/05/30 06:16:46;;;;;;;4.47;2.20;;;19.30;54.00;;;;;;4974706;28;20046;-68
2022/05/30 06:19:11;;;;;;;4.45;1.88;;;19.20;54.10;;;;;;4974542;28;20477;-68
2022/05/30 06:21:38;;;;;;;3.53;1.90;;;19.20;54.00;;;;;;4993826;28;20037;-68
2022/05/30 06:24:05;;;;;;;4.43;2.53;;;19.10;54.30;;;;;;4968039;28;20050;-68
2022/05/30 06:26:30;;;;;;;3.75;1.80;;;19.10;54.40;;;;;;4974333;28;20377;-68
2022/05/30 06:28:57;;;;;;;4.68;1.95;;;19.10;54.70;;;;;;4973953;28;20031;-68
2022/05/30 06:31:25;;;;;;;4.47;1.90;;;19.00;54.60;;;;;;4974157;28;20026;-68
2022/05/30 06:33:53;;;;;;;3.72;2.30;;;19.00;54.80;;;;;;4971748;28;20022;-68
2022/05/30 06:36:19;;;;;;;6.60;1.85;;;19.00;54.90;;;;;;4972745;28;20031;-67
2022/05/30 06:38:46;;;;;;;5.47;2.08;;;19.00;55.00;;;;;;4972671;28;20604;-67
2022/05/30 06:41:17;;;;;;;5.20;2.00;;;19.00;55.20;;;;;;4973191;28;20030;-68
2022/05/30 06:43:43;;;;;;;3.80;2.10;;;18.90;54.90;;;;;;4972911;28;20025;-68
2022/05/30 06:46:08;;;;;;;4.85;2.00;;;18.80;55.00;;;;;;4972317;28;20042;-68
2022/05/30 06:48:34;;;;;;;5.90;1.88;;;18.80;54.90;;;;;;4973484;28;20034;-68
2022/05/30 06:51:11;;;;;;;7.75;2.17;;;18.80;54.90;;;;;;4973348;28;20031;-68
2022/05/30 06:53:36;;;;;;;5.05;1.80;;;18.70;55.00;;;;;;4973092;28;20034;-68
2022/05/30 06:56:02;;;;;;;5.50;1.73;;;18.70;54.80;;;;;;4973231;28;20027;-68
2022/05/30 06:58:28;;;;;;;4.72;1.50;;;18.70;55.00;;;;;;4971892;28;20026;-68
2022/05/30 07:01:00;;;;;;;4.50;1.45;;;18.70;54.80;;;;;;4975021;28;20026;-68
2022/05/30 07:03:26;;;;;;;4.00;1.58;;;18.60;54.90;;;;;;4974910;28;20113;-68
2022/05/30 07:05:52;;;;;;;5.85;1.55;;;18.60;54.90;;;;;;4975083;28;20015;-68
2022/05/30 07:08:17;;;;;;;5.18;1.50;;;18.60;54.90;;;;;;4973627;28;20029;-68
2022/05/30 07:10:44;;;;;;;2.53;1.10;;;18.60;54.90;;;;;;4973890;28;20027;-68
2022/05/30 07:13:10;;;;;;;3.90;1.40;;;18.60;54.90;;;;;;4974433;28;20406;-68
2022/05/30 07:15:36;;;;;;;4.30;1.30;;;18.60;54.70;;;;;;4974761;28;20089;-68
2022/05/30 07:18:12;;;;;;;4.38;1.52;;;18.50;54.90;;;;;;4957684;28;20023;-68
2022/05/30 07:20:38;;;;;;;6.30;1.60;;;18.50;54.80;;;;;;4973599;28;20019;-68
2022/05/30 07:23:04;;;;;;;3.78;1.00;;;18.50;54.90;;;;;;4973547;28;20026;-68
2022/05/30 07:25:30;;;;;;;3.75;1.02;;;18.50;54.90;;;;;;4972728;28;20034;-68
2022/05/30 07:27:55;;;;;;;2.60;1.25;;;18.50;54.70;;;;;;4974577;28;20022;-68
2022/05/30 07:30:21;;;;;;;2.70;1.17;;;18.50;54.70;;;;;;4974409;28;20039;-68
2022/05/30 07:32:47;;;;;;;3.97;1.10;;;18.40;54.90;;;;;;4974459;28;20038;-68
2022/05/30 07:35:12;;;;;;;1.60;1.17;;;18.50;54.90;;;;;;4974552;28;20038;-68
2022/05/30 07:37:38;;;;;;;2.55;1.10;;;18.40;54.90;;;;;;4974065;28;20093;-68
2022/05/30 07:40:08;;;;;;;4.18;1.40;;;18.40;54.60;;;;;;4974520;28;20030;-68
2022/05/30 07:42:34;;;;;;;6.47;1.58;;;18.40;54.60;;;;;;4974135;28;20023;-68
2022/05/30 07:44:59;;;;;;;2.78;1.10;;;18.40;54.60;;;;;;4974440;28;20077;-68
2022/05/30 07:47:27;;;;;;;3.88;1.27;;;18.40;54.60;;;;;;4954841;29;20039;-68
2022/05/30 07:49:52;;;;;;;2.75;1.00;;;18.40;54.50;;;;;;4954973;29;20027;-68
2022/05/30 07:52:18;;;;;;;1.85;1.10;;;18.40;54.60;;;;;;4954768;28;20027;-68
2022/05/30 07:54:44;;;;;;;5.65;1.10;;;18.30;54.30;;;;;;4954976;29;20037;-67
2022/05/30 07:57:10;;;;;;;1.30;1.00;;;18.30;54.00;;;;;;4954675;28;20046;-68
2022/05/30 07:59:36;;;;;;;1.60;0.90;;;18.30;54.10;;;;;;4964503;28;20025;-68
2022/05/30 08:02:03;;;;;;;4.88;1.20;;;18.30;54.00;;;;;;4974061;28;20019;-68
2022/05/30 08:04:29;;;;;;;2.20;1.10;;;18.30;53.80;;;;;;4972639;28;20110;-68
2022/05/30 08:06:54;;;;;;;3.25;1.20;;;18.30;53.80;;;;;;4960291;28;20091;-68
2022/05/30 08:09:20;;;;;;;3.78;1.10;;;18.30;53.50;;;;;;4954609;29;20023;-68
2022/05/30 08:11:46;;;;;;;2.47;0.90;;;18.20;53.40;;;;;;4954372;29;20102;-68
2022/05/30 08:14:11;;;;;;;3.20;1.00;;;18.20;53.30;;;;;;4953604;29;20034;-68
2022/05/30 08:16:37;;;;;;;2.75;0.90;;;18.20;53.20;;;;;;4954747;28;20083;-68
2022/05/30 08:19:07;;;;;;;3.08;0.95;;;18.20;53.00;;;;;;4953385;29;20034;-68
2022/05/30 08:21:33;;;;;;;2.67;1.00;;;18.20;53.00;;;;;;4953170;29;20501;-68
2022/05/30 08:23:58;;;;;;;2.78;1.00;;;18.20;52.80;;;;;;4953456;29;20094;-68
2022/05/30 08:26:24;;;;;;;2.20;1.00;;;18.20;52.90;;;;;;4954120;29;20033;-68
2022/05/30 08:28:50;;;;;;;2.85;0.90;;;18.20;53.10;;;;;;4954353;29;20367;-68
2022/05/30 08:31:16;;;;;;;3.22;0.85;;;18.20;52.70;;;;;;4954448;29;20524;-67
2022/05/30 08:33:42;;;;;;;3.60;1.00;;;18.20;52.80;;;;;;4954316;28;20027;-68
2022/05/30 08:36:09;;;;;;;2.30;1.02;;;18.20;52.80;;;;;;4954307;28;20027;-68
2022/05/30 08:38:37;;;;;;;3.22;0.98;;;18.20;52.50;;;;;;4952930;29;20032;-68
2022/05/30 08:43:49;;;;;;;2.28;0.75;;;18.20;52.60;;;;;;4954275;28;20082;-68
2022/05/30 08:46:35;;;;;;;5.47;1.17;;;18.20;52.10;;;;;;4943585;29;20039;-68
2022/05/30 08:49:14;;;;;;;1.63;1.20;;;18.20;52.20;;;;;;4952860;29;20043;-68
2022/05/30 08:52:10;;;;;;;3.13;0.93;;;18.10;51.80;;;;;;4954160;29;20031;-68
2022/05/30 08:54:47;;;;;;;2.03;0.82;;;18.10;51.90;;;;;;4953174;29;20031;-68
2022/05/30 08:57:36;;;;;;;1.75;0.80;;;18.20;52.00;;;;;;4954218;29;20031;-68
2022/05/30 09:00:10;;;;;;;3.35;0.90;;;18.20;51.50;;;;;;4951875;28;20039;-68
2022/05/30 09:02:54;;;;;;;2.65;0.85;;;18.20;51.40;;;;;;4936642;29;20167;-68
2022/05/30 09:05:41;;;;;;;4.38;1.35;;;18.10;51.50;;;;;;4935961;29;20051;-68
2022/05/30 09:08:08;;;;;;;2.65;0.90;;;18.20;51.20;;;;;;4951859;29;20035;-68
2022/05/30 09:10:45;;;;;;;1.05;0.80;;;18.10;51.50;;;;;;4935954;29;20143;-68
2022/05/30 09:13:23;;;;;;;2.38;0.70;;;18.20;51.20;;;;;;4936017;29;20167;-68
2022/05/30 09:16:04;;;;;;;2.15;0.80;;;18.20;51.30;;;;;;4935925;29;20035;-68
2022/05/30 09:18:41;;;;;;;2.90;0.98;;;18.20;51.00;;;;;;4951621;29;20039;-68
2022/05/30 09:21:08;;;;;;;2.55;0.82;;;18.10;50.90;;;;;;4936968;29;20058;-67
2022/05/30 09:23:34;;;;;;;2.55;0.82;;;18.20;51.10;;;;;;4935911;29;20034;-68
2022/05/30 09:26:07;;;;;;;2.10;1.08;;;18.20;51.00;;;;;;4951892;29;20032;-68
2022/05/30 09:28:34;;;;;;;4.28;1.00;;;18.20;50.60;;;;;;4951578;29;20027;-68
2022/05/30 09:31:21;;;;;;;1.60;0.90;;;18.10;50.30;;;;;;4935703;29;20422;-67
2022/05/30 09:33:51;;;;;;;1.80;0.70;;;18.10;50.50;;;;;;4951574;29;20035;-68
2022/05/30 09:36:24;;;;;;;3.58;1.10;;;18.10;50.30;;;;;;4952230;29;20403;-68
2022/05/30 09:38:54;;;;;;;;;;;18.10;50.20;;;;;;4954040;29;20023;-68
2022/05/30 09:41:48;;;;;;;1.23;0.60;;;18.10;50.30;;;;;;4953876;28;19961;-68
2022/05/30 09:44:20;;;;;;;1.25;0.73;;;18.10;50.40;;;;;;4952959;28;20118;-68
2022/05/30 09:46:52;;;;;;;3.10;0.80;;;18.10;50.30;;;;;;4953656;28;20043;-68
2022/05/30 09:49:26;;;;;;;1.35;0.70;;;18.10;50.20;;;;;;4957255;29;20020;-68
2022/05/30 09:51:56;;;;;;;1.77;0.75;;;18.10;50.10;;;;;;4955819;29;20035;-68
2022/05/30 09:54:25;;;;;;;2.05;0.80;;;18.10;49.70;;;;;;4955749;29;20031;-67
2022/05/30 09:56:57;;;;;;;1.40;0.88;;;18.10;49.80;;;;;;4957122;29;20027;-68
2022/05/30 09:59:40;;;;;;;1.23;0.63;;;18.10;49.30;;;;;;4964190;28;20436;-68
2022/05/30 10:02:18;;;;;;;;;;;18.10;49.70;;;;;;4959639;28;20026;-68
2022/05/30 10:04:44;;;;;;;1.50;0.50;;;18.10;51.00;;;;;;4976026;28;19988;-68
2022/05/30 10:07:17;;;;;;;5.85;1.10;;;18.20;50.20;;;;;;4959153;28;20427;-68
2022/05/30 10:09:53;;;;;;;2.30;0.40;;;18.20;50.10;;;;;;4956895;29;20074;-68
2022/05/30 10:12:44;;;;;;;2.17;0.80;;;18.20;50.10;;;;;;4955739;29;20033;-68
2022/05/30 10:15:30;;;;;;;2.70;0.82;;;18.20;49.00;;;;;;4956209;29;20039;-68
2022/05/30 10:17:58;;;;;;;1.02;0.90;;;18.10;49.20;;;;;;4955533;29;20110;-68
2022/05/30 10:20:26;;;;;;;1.73;0.93;;;18.10;49.00;;;;;;4955215;29;20490;-68
2022/05/30 10:28:54;;;;;;;1.95;0.95;;;18.10;49.00;;;;;;4943226;29;20038;-68
2022/05/30 10:31:33;;;;;;;2.33;0.80;;;18.10;48.90;;;;;;4955438;29;20031;-68
2022/05/30 10:34:19;;;;;;;2.78;0.73;;;18.10;48.50;;;;;;4956403;29;20067;-68
2022/05/30 10:37:42;;;;;;;1.55;0.70;;;18.10;48.50;;;;;;4956219;29;20564;-68
2022/05/30 10:40:13;;;;;;;2.13;0.80;;;18.10;48.80;;;;;;4954131;29;20031;-68
2022/05/30 10:43:00;;;;;;;4.07;0.73;;;18.10;48.70;;;;;;4954136;29;20030;-68
2022/05/30 10:45:37;;;;;;;1.25;0.70;;;18.10;48.60;;;;;;4941280;28;20027;-68
2022/05/30 10:48:03;;;;;;;2.75;1.00;;;18.10;48.50;;;;;;4957415;28;20556;-68
2022/05/30 10:50:46;;;;;;;2.53;0.77;;;18.10;48.90;;;;;;4940993;28;20034;-68
2022/05/30 10:53:35;;;;;;;3.63;0.88;;;18.20;48.90;;;;;;4943618;28;20042;-67
2022/05/30 10:56:05;;;;;;;1.92;0.70;;;18.20;48.90;;;;;;4958866;28;20038;-68
2022/05/30 10:58:38;;;;;;;3.78;0.70;;;18.20;48.80;;;;;;4941619;28;20429;-68
2022/05/30 11:01:09;;;;;;;2.10;0.70;;;18.10;48.40;;;;;;4976017;28;20036;-68
2022/05/30 11:03:47;;;;;;;2.05;0.90;;;18.20;48.50;;;;;;4960502;28;20125;-68
2022/05/30 11:06:27;;;;;;;1.40;0.60;;;18.20;48.20;;;;;;4952292;28;20102;-67
2022/05/30 11:09:06;;;;;;;1.20;0.60;;;18.20;48.70;;;;;;4956942;28;20517;-68
2022/05/30 11:11:33;;;;;;;2.85;0.68;;;18.20;48.90;;;;;;4954324;29;20057;-68
2022/05/30 11:14:40;;;;;;;1.17;0.73;;;18.20;48.50;;;;;;4954564;29;20027;-67
2022/05/30 11:17:22;;;;;;;2.03;0.73;;;18.20;48.50;;;;;;4972704;28;20038;-68
2022/05/30 11:20:13;;;;;;;1.05;0.63;;;18.20;48.40;;;;;;4956440;28;20102;-68
2022/05/30 11:22:48;;;;;;;1.48;0.60;;;18.20;47.80;;;;;;4959043;28;20042;-68
2022/05/30 11:25:15;;;;;;;2.63;0.90;;;18.20;48.40;;;;;;4956693;28;20043;-68
2022/05/30 11:27:53;;;;;;;1.20;0.80;;;18.10;49.10;;;;;;4956325;28;20039;-68
2022/05/30 11:30:46;;;;;;;1.60;0.70;;;18.20;49.70;;;;;;4972580;28;20034;-68
2022/05/30 11:33:23;;;;;;;1.55;0.60;;;18.10;50.00;;;;;;4972405;28;20105;-68
2022/05/30 11:36:12;;;;;;;1.20;0.70;;;18.20;50.20;;;;;;4956787;28;20077;-68
2022/05/30 11:38:56;;;;;;;2.85;0.85;;;18.10;50.20;;;;;;4972285;28;20026;-68
2022/05/30 11:41:35;;;;;;;1.80;0.90;;;18.10;50.60;;;;;;4972545;28;20066;-67
2022/05/30 11:44:22;;;;;;;2.30;0.80;;;18.20;50.70;;;;;;4956246;28;20110;-67
2022/05/30 11:46:51;;;;;;;1.63;0.70;;;18.20;50.50;;;;;;4972119;28;20050;-68
2022/05/30 11:49:25;;;;;;;1.48;0.60;;;18.10;50.50;;;;;;4972334;28;20033;-68
2022/05/30 11:52:28;;;;;;;2.42;0.70;;;18.20;50.60;;;;;;4972099;28;20125;-67
2022/05/30 11:55:20;;;;;;;2.67;1.00;;;18.20;50.70;;;;;;4957940;28;20042;-68
2022/05/30 11:57:46;;;;;;;2.50;0.82;;;18.20;50.70;;;;;;4971872;28;20046;-68
2022/05/30 12:00:34;;;;;;;1.23;0.70;;;18.20;50.60;;;;;;4986734;28;20038;-68
2022/05/30 12:03:09;;;;;;;1.73;0.70;;;18.30;50.90;;;;;;4975377;28;20034;-68
2022/05/30 12:05:44;;;;;;;1.77;0.70;;;18.30;50.90;;;;;;4972729;28;20026;-68
2022/05/30 12:08:29;;;;;;;0.68;0.50;;;18.30;50.90;;;;;;4972055;28;20133;-68
2022/05/30 12:11:24;;;;;;;4.63;0.85;;;18.30;51.10;;;;;;4986756;28;20041;-68
2022/05/30 12:14:11;;;;;;;1.35;0.60;;;18.30;51.20;;;;;;4971875;28;20042;-68
2022/05/30 12:16:40;;;;;;;1.50;0.77;;;18.30;51.30;;;;;;4971615;28;20452;-67
2022/05/30 12:24:58;;;;;;;0.82;0.70;;;18.30;51.50;;;;;;4971814;28;20066;-68
2022/05/30 12:27:36;;;;;;;1.25;0.80;;;18.30;51.60;;;;;;4987893;28;20055;-68
2022/05/30 12:30:12;;;;;;;2.60;0.88;;;18.30;51.50;;;;;;4971686;28;20513;-68
2022/05/30 12:32:38;;;;;;;4.70;0.80;;;18.30;51.40;;;;;;4987754;28;20527;-68
2022/05/30 12:35:13;;;;;;;1.90;0.60;;;18.30;51.20;;;;;;4960805;28;20047;-68
2022/05/30 12:37:43;;;;;;;1.77;0.70;;;18.30;51.10;;;;;;4954422;29;20027;-68
2022/05/30 12:40:27;;;;;;;1.38;0.60;;;18.30;51.00;;;;;;4954361;29;20501;-68
2022/05/30 12:43:29;;;;;;;3.20;0.70;;;18.20;51.00;;;;;;4954170;29;20561;-68
2022/05/30 12:45:55;;;;;;;3.03;0.85;;;18.20;51.10;;;;;;4961221;28;20041;-67
2022/05/30 12:48:34;;;;;;;0.93;0.40;;;18.20;51.20;;;;;;4973530;28;20106;-68
2022/05/30 12:51:08;;;;;;;2.28;0.70;;;18.30;51.30;;;;;;4973439;28;20025;-68
2022/05/30 12:53:59;;;;;;;2.55;0.60;;;18.20;51.20;;;;;;4973664;28;20389;-68
2022/05/30 12:56:48;;;;;;;1.23;0.68;;;18.20;51.10;;;;;;4973458;28;20043;-68
2022/05/30 12:59:33;;;;;;;1.77;0.73;;;18.20;51.20;;;;;;4973233;28;20061;-68
2022/05/30 13:01:59;;;;;;;3.45;0.70;;;18.20;51.20;;;;;;4972222;28;20401;-68
2022/05/30 13:04:35;;;;;;;5.40;0.75;;;18.10;51.10;;;;;;4973371;28;20406;-68
2022/05/30 13:07:04;;;;;;;1.48;0.60;;;18.20;51.10;;;;;;4972218;28;20385;-68
2022/05/30 13:09:43;;;;;;;4.13;0.60;;;18.20;51.10;;;;;;4973297;28;20445;-68
2022/05/30 13:12:14;;;;;;;2.70;0.70;;;18.10;51.00;;;;;;4973480;28;20478;-68
2022/05/30 13:14:49;;;;;;;3.03;0.77;;;18.10;50.90;;;;;;4973248;28;20019;-68
2022/05/30 13:17:23;;;;;;;0.60;0.50;;;18.10;50.80;;;;;;4973350;28;20023;-68
2022/05/30 13:19:53;;;;;;;3.28;0.80;;;18.10;50.70;;;;;;4973241;28;20029;-68
2022/05/30 13:22:30;;;;;;;1.50;0.60;;;18.10;50.70;;;;;;4972760;28;20031;-68
2022/05/30 13:24:56;;;;;;;1.75;0.73;;;18.10;50.60;;;;;;4961140;28;20390;-67